• Join FlightAware (Why Join?)
  • Login
  • US Flag 
08:52PM EDT


 

Airport Tracker/Info


-or-


 

Live Flight TrackerFlight Track Log ✈ N27XP ✈ 23-Dec-2013 ✈ KTEB - KSOP

Flight Track Log - Related Links

Times and Time Zones

All times are in EST time to prevent confusion due to time zone crossing. See the N27XP flight status page for this flight to view local times or setup timezone preferences in your user account.

Time Position Orientation Groundspeed Altitude Reporting Facility
EST Latitude Longitude Course Direction KTS MPH feet Rate Location/Type
02:37PM 40.8667 -74.0500 323° Northwest 169 194 900  Level New York TRACON
02:38PM 40.9000 -74.0833 323° Northwest 190 219 3,000 2,340 Climbing New York TRACON
02:39PM 40.8833 -74.1667 255° West 235 270 5,600 2,880 Climbing New York TRACON
02:40PM 40.8833 -74.2500 270° West 244 281 8,800 2,700 Climbing New York TRACON
02:41PM 40.9000 -74.3500 282° West 252 290 11,000 1,560 Climbing New York TRACON
02:43PM 40.8178 -74.5522 242° Southwest 284 327 14,100 1,620 Climbing New York Center
02:44PM 40.7756 -74.6322 235° Southwest 284 327 16,500 2,100 Climbing New York Center
02:45PM 40.7356 -74.7119 237° Southwest 271 312 18,300 1,380 Climbing New York Center
02:46PM 40.6911 -74.7861 232° Southwest 262 302 19,400 1,140 Climbing New York Center
02:47PM 40.6469 -74.8656 234° Southwest 262 302 20,600 1,140 Climbing New York Center
02:48PM 40.6000 -74.9556 236° Southwest 278 320 21,700 1,200 Climbing New York Center
02:49PM 40.5531 -75.0431 235° Southwest 289 333 23,000 1,200 Climbing New York Center
02:50PM 40.5022 -75.1189 229° Southwest 289 333 24,200 1,140 Climbing New York Center
02:51PM 40.4514 -75.2003 231° Southwest 289 333 25,400 1,200 Climbing New York Center
02:52PM 40.4069 -75.2739 232° Southwest 289 333 26,600 1,200 Climbing New York Center
02:53PM 40.3619 -75.3581 235° Southwest 289 333 27,800 1,080 Climbing New York Center
02:54PM 40.3169 -75.4422 235° Southwest 289 333 28,800 900 Climbing New York Center
02:55PM 40.2700 -75.5233 233° Southwest 283 326 29,700 900 Climbing New York Center
02:56PM 40.2189 -75.6039 230° Southwest 283 326 30,700 900 Climbing New York Center
02:57PM 40.1675 -75.6819 229° Southwest 288 331 31,600 900 Climbing New York Center
02:58PM 40.1142 -75.7625 229° Southwest 294 338 32,500 900 Climbing New York Center
02:59PM 40.0631 -75.8372 228° Southwest 294 338 33,400 840 Climbing New York Center
03:00PM 40.0117 -75.9150 229° Southwest 294 338 34,300 840 Climbing New York Center
03:01PM 39.9567 -75.9814 223° Southwest 287 330 35,100 720 Climbing New York Center
03:02PM 39.8953 -76.0497 221° Southwest 282 325 35,800 420 Climbing New York Center
03:03PM 39.8381 -76.1186 223° Southwest 282 325 36,000 60 Climbing New York Center
03:04PM 39.7722 -76.1892 219° Southwest 287 330 36,000  Level New York Center
03:07PM 39.6319 -76.3567 223° Southwest 309 356 36,000  Level Washington Center
03:08PM 39.5647 -76.4342 222° Southwest 322 371 36,000  Level Washington Center
03:09PM 39.4956 -76.5086 220° Southwest 322 371 36,000  Level Washington Center
03:10PM 39.4178 -76.5936 220° Southwest 327 376 36,000  Level Washington Center
03:11PM 39.3503 -76.6706 221° Southwest 327 376 36,000  Level Washington Center
03:12PM 39.2831 -76.7472 221° Southwest 327 376 36,000  Level Washington Center
03:13PM 39.2178 -76.8239 222° Southwest 327 376 36,000  Level Washington Center
03:14PM 39.1792 -76.9250 244° Southwest 322 371 36,000 -60 Level Washington Center
03:15PM 39.1342 -77.0258 240° Southwest 322 371 35,900 -840 Descending Washington Center
03:16PM 39.0747 -77.1075 227° Southwest 322 371 34,400 -1,620 Descending Washington Center
03:17PM 39.0153 -77.1944 229° Southwest 322 371 32,700 -1,260 Descending Washington Center
03:18PM 38.9475 -77.2731 222° Southwest 327 376 32,000 -360 Descending Washington Center
03:19PM 38.8694 -77.3461 216° Southwest 339 390 32,000  Level Washington Center
03:20PM 38.7933 -77.4189 217° Southwest 344 396 32,000  Level Washington Center
03:21PM 38.7169 -77.4914 217° Southwest 349 402 32,000  Level Washington Center
03:22PM 38.6556 -77.5508 217° Southwest 349 402 32,000  Level Washington Center
03:23PM 38.5731 -77.6311 217° Southwest 349 402 32,000  Level Washington Center
03:24PM 38.4967 -77.7033 217° Southwest 349 402 32,000  Level Washington Center
03:25PM 38.4183 -77.7753 216° Southwest 349 402 32,000  Level Washington Center
03:26PM 38.3419 -77.8472 216° Southwest 349 402 32,000  Level Washington Center
03:27PM 38.2675 -77.9189 217° Southwest 349 402 32,000  Level Washington Center
03:28PM 38.1911 -77.9881 215° Southwest 349 402 32,000  Level Washington Center
03:29PM 38.1144 -78.0619 217° Southwest 349 402 32,000  Level Washington Center
03:30PM 38.0400 -78.1308 216° Southwest 349 402 32,000  Level Washington Center
03:31PM 37.9553 -78.1964 211° Southwest 341 392 32,000  Level Washington Center
03:32PM 37.8811 -78.2411 205° Southwest 327 376 32,000  Level Washington Center
03:33PM 37.7986 -78.2961 208° Southwest 327 376 32,000  Level Washington Center
03:34PM 37.7161 -78.3483 207° Southwest 333 383 32,000  Level Washington Center
03:35PM 37.6336 -78.4031 208° Southwest 333 383 32,000  Level Washington Center
03:36PM 37.5403 -78.4597 206° Southwest 333 383 32,000 -60 Level Washington Center
03:37PM 37.4578 -78.5142 208° Southwest 333 383 31,900 -840 Descending Washington Center
03:38PM 37.3750 -78.5686 208° Southwest 333 383 30,300 -4,500 Descending Washington Center
03:39PM 37.2881 -78.6253 207° Southwest 338 389 23,000 -2,040 Descending Washington Center
03:40PM 37.1992 -78.6792 206° Southwest 344 396 26,300 600 Climbing Washington Center
03:41PM 37.1228 -78.7281 207° Southwest 351 404 24,300 -1,680 Descending Washington Center
03:42PM 37.0400 -78.7819 207° Southwest 346 398 23,000 -1,500 Descending Washington Center
03:43PM 36.9572 -78.8281 204° Southwest 340 391 21,300 -1,680 Descending Washington Center
03:44PM 36.8592 -78.8317 182° South 335 386 19,600 -1,440 Descending Washington Center
03:45PM 36.7633 -78.8250 177° South 346 398 18,400 -1,200 Descending Washington Center
03:46PM 36.6781 -78.8214 178° South 346 398 17,200 -1,260 Descending Washington Center
03:47PM 36.5758 -78.8197 179° South 346 398 16,000 -660 Descending Washington Center
03:48PM 36.4778 -78.8158 178° South 346 398 16,000  Level Washington Center
03:49PM 36.3717 -78.8086 177° South 346 398 16,000  Level Washington Center
03:50PM 36.2778 -78.8022 177° South 346 398 16,000  Level Washington Center
03:51PM 36.1842 -78.7986 178° South 346 398 16,000 -180 Level Washington Center
03:51PM 36.1278 -78.7989 180° South 339 390 15,800 -840 Descending Washington Center
03:52PM 36.0986 -78.7975 178° South 346 398 15,200 -1,920 Descending Washington Center
03:53PM 36.0047 -78.7911 177° South 346 398 13,200 -2,160 Descending Washington Center
03:53PM 35.9922 -78.7933 188° South 340 391 13,000 -1,500 Descending Washington Center
03:54PM 35.9111 -78.7900 178° South 346 398 11,700 -1,440 Descending Washington Center
03:54PM 35.8983 -78.7894 178° South 338 389 11,600 -1,200 Descending Washington Center
03:55PM 35.8269 -78.8097 193° South 333 383 10,500 -1,200 Descending Washington Center
03:56PM 35.7628 -78.8686 217° Southwest 299 344 9,300 -1,260 Descending Washington Center
03:57PM 35.7069 -78.9225 218° Southwest 282 325 8,100 -1,260 Descending Washington Center
03:58PM 35.6536 -78.9714 217° Southwest 261 300 6,800 -1,260 Descending Washington Center
03:59PM 35.6000 -79.0203 217° Southwest 255 293 5,600 -1,320 Descending Washington Center
04:00PM 35.5464 -79.0689 216° Southwest 250 288 4,300 -840 Descending Washington Center
04:01PM 35.4864 -79.1200 215° Southwest 250 288 4,000 -300 Descending Washington Center
04:03PM 35.3742 -79.2425 219° Southwest  Level FlightAware Approximate